sensor_id;sensor_type;location;lat;lon;timestamp;P1;durP1;ratioP1;P2;durP2;ratioP2
6840;SDS011;3458;53.678;14.080;2022-08-16T00:01:28;12.30;;;8.47;;
6840;SDS011;3458;53.678;14.080;2022-08-16T00:03:54;12.77;;;7.90;;
6840;SDS011;3458;53.678;14.080;2022-08-16T00:06:19;12.03;;;7.50;;
6840;SDS011;3458;53.678;14.080;2022-08-16T00:08:46;10.87;;;8.33;;
6840;SDS011;3458;53.678;14.080;2022-08-16T00:11:13;9.67;;;7.90;;
6840;SDS011;3458;53.678;14.080;2022-08-16T00:13:39;9.83;;;7.97;;
6840;SDS011;3458;53.678;14.080;2022-08-16T00:16:04;10.27;;;8.90;;
6840;SDS011;3458;53.678;14.080;2022-08-16T00:18:30;16.20;;;8.40;;
6840;SDS011;3458;53.678;14.080;2022-08-16T00:20:56;9.67;;;7.80;;
6840;SDS011;3458;53.678;14.080;2022-08-16T00:23:22;10.17;;;7.97;;
6840;SDS011;3458;53.678;14.080;2022-08-16T00:25:48;9.70;;;8.53;;
6840;SDS011;3458;53.678;14.080;2022-08-16T00:28:13;16.93;;;8.10;;
6840;SDS011;3458;53.678;14.080;2022-08-16T00:30:39;10.93;;;8.30;;
6840;SDS011;3458;53.678;14.080;2022-08-16T00:33:04;9.93;;;7.53;;
6840;SDS011;3458;53.678;14.080;2022-08-16T00:35:32;13.33;;;8.30;;
6840;SDS011;3458;53.678;14.080;2022-08-16T00:37:59;11.10;;;8.50;;
6840;SDS011;3458;53.678;14.080;2022-08-16T00:40:31;10.97;;;8.83;;
6840;SDS011;3458;53.678;14.080;2022-08-16T00:42:59;10.90;;;8.37;;
6840;SDS011;3458;53.678;14.080;2022-08-16T00:45:34;12.67;;;8.30;;
6840;SDS011;3458;53.678;14.080;2022-08-16T00:48:05;10.23;;;6.40;;
6840;SDS011;3458;53.678;14.080;2022-08-16T00:50:34;11.57;;;7.67;;
6840;SDS011;3458;53.678;14.080;2022-08-16T00:53:02;8.47;;;7.57;;
6840;SDS011;3458;53.678;14.080;2022-08-16T00:55:29;11.73;;;8.60;;
6840;SDS011;3458;53.678;14.080;2022-08-16T00:57:55;18.30;;;8.13;;
6840;SDS011;3458;53.678;14.080;2022-08-16T01:00:23;15.23;;;8.50;;
6840;SDS011;3458;53.678;14.080;2022-08-16T01:02:52;9.37;;;8.00;;
6840;SDS011;3458;53.678;14.080;2022-08-16T01:05:19;13.10;;;8.13;;
6840;SDS011;3458;53.678;14.080;2022-08-16T01:07:44;16.80;;;8.90;;
6840;SDS011;3458;53.678;14.080;2022-08-16T01:10:10;11.30;;;7.47;;
6840;SDS011;3458;53.678;14.080;2022-08-16T01:12:36;14.07;;;8.50;;
6840;SDS011;3458;53.678;14.080;2022-08-16T01:15:02;10.57;;;7.30;;
6840;SDS011;3458;53.678;14.080;2022-08-16T01:17:28;13.37;;;8.20;;
6840;SDS011;3458;53.678;14.080;2022-08-16T01:19:56;12.07;;;9.13;;
6840;SDS011;3458;53.678;14.080;2022-08-16T01:24:54;14.23;;;8.90;;
6840;SDS011;3458;53.678;14.080;2022-08-16T01:27:42;15.50;;;8.73;;
6840;SDS011;3458;53.678;14.080;2022-08-16T01:30:32;12.83;;;8.20;;
6840;SDS011;3458;53.678;14.080;2022-08-16T01:32:59;11.77;;;8.93;;
6840;SDS011;3458;53.678;14.080;2022-08-16T01:35:27;11.50;;;9.80;;
6840;SDS011;3458;53.678;14.080;2022-08-16T01:38:25;9.90;;;8.03;;
6840;SDS011;3458;53.678;14.080;2022-08-16T01:41:11;11.10;;;9.03;;
6840;SDS011;3458;53.678;14.080;2022-08-16T01:43:40;14.23;;;9.00;;
6840;SDS011;3458;53.678;14.080;2022-08-16T01:46:15;12.93;;;8.67;;
6840;SDS011;3458;53.678;14.080;2022-08-16T01:49:08;11.93;;;9.10;;
6840;SDS011;3458;53.678;14.080;2022-08-16T01:51:43;12.10;;;8.80;;
6840;SDS011;3458;53.678;14.080;2022-08-16T01:54:10;19.37;;;10.40;;
6840;SDS011;3458;53.678;14.080;2022-08-16T01:56:36;12.70;;;8.47;;
6840;SDS011;3458;53.678;14.080;2022-08-16T01:59:04;14.20;;;9.10;;
6840;SDS011;3458;53.678;14.080;2022-08-16T02:01:31;18.07;;;10.63;;
6840;SDS011;3458;53.678;14.080;2022-08-16T02:03:57;13.80;;;10.07;;
6840;SDS011;3458;53.678;14.080;2022-08-16T02:06:24;12.43;;;10.70;;
6840;SDS011;3458;53.678;14.080;2022-08-16T02:08:50;15.90;;;10.30;;
6840;SDS011;3458;53.678;14.080;2022-08-16T02:11:15;16.87;;;11.20;;
6840;SDS011;3458;53.678;14.080;2022-08-16T02:13:41;15.60;;;11.97;;
6840;SDS011;3458;53.678;14.080;2022-08-16T02:16:07;13.10;;;10.23;;
6840;SDS011;3458;53.678;14.080;2022-08-16T02:18:37;16.27;;;10.97;;
6840;SDS011;3458;53.678;14.080;2022-08-16T02:21:02;15.20;;;11.50;;
6840;SDS011;3458;53.678;14.080;2022-08-16T02:23:29;16.43;;;10.67;;
6840;SDS011;3458;53.678;14.080;2022-08-16T02:25:55;14.87;;;11.70;;
6840;SDS011;3458;53.678;14.080;2022-08-16T02:28:22;18.47;;;10.20;;
6840;SDS011;3458;53.678;14.080;2022-08-16T02:30:48;21.00;;;11.93;;
6840;SDS011;3458;53.678;14.080;2022-08-16T02:33:14;15.77;;;11.40;;
6840;SDS011;3458;53.678;14.080;2022-08-16T02:35:39;15.00;;;10.80;;
6840;SDS011;3458;53.678;14.080;2022-08-16T02:38:05;15.23;;;10.07;;
6840;SDS011;3458;53.678;14.080;2022-08-16T02:40:30;16.27;;;10.07;;
6840;SDS011;3458;53.678;14.080;2022-08-16T02:42:57;14.90;;;12.17;;
6840;SDS011;3458;53.678;14.080;2022-08-16T02:45:23;16.97;;;9.43;;
6840;SDS011;3458;53.678;14.080;2022-08-16T02:47:51;12.63;;;10.33;;
6840;SDS011;3458;53.678;14.080;2022-08-16T02:50:17;13.97;;;10.63;;
6840;SDS011;3458;53.678;14.080;2022-08-16T02:52:43;12.83;;;10.20;;
6840;SDS011;3458;53.678;14.080;2022-08-16T02:55:09;13.20;;;9.70;;
6840;SDS011;3458;53.678;14.080;2022-08-16T02:57:35;14.57;;;10.90;;
6840;SDS011;3458;53.678;14.080;2022-08-16T03:00:03;16.40;;;10.87;;
6840;SDS011;3458;53.678;14.080;2022-08-16T03:02:34;12.67;;;10.27;;
6840;SDS011;3458;53.678;14.080;2022-08-16T03:05:00;14.77;;;10.77;;
6840;SDS011;3458;53.678;14.080;2022-08-16T03:07:26;16.63;;;10.77;;
6840;SDS011;3458;53.678;14.080;2022-08-16T03:09:51;15.63;;;10.70;;
6840;SDS011;3458;53.678;14.080;2022-08-16T03:12:17;13.17;;;10.43;;
6840;SDS011;3458;53.678;14.080;2022-08-16T03:14:43;19.70;;;11.43;;
6840;SDS011;3458;53.678;14.080;2022-08-16T03:17:09;15.07;;;11.20;;
6840;SDS011;3458;53.678;14.080;2022-08-16T03:19:34;18.13;;;11.70;;
6840;SDS011;3458;53.678;14.080;2022-08-16T03:22:01;18.97;;;11.50;;
6840;SDS011;3458;53.678;14.080;2022-08-16T03:24:27;15.00;;;11.43;;
6840;SDS011;3458;53.678;14.080;2022-08-16T03:26:53;22.17;;;12.63;;
6840;SDS011;3458;53.678;14.080;2022-08-16T03:29:18;18.57;;;12.37;;
6840;SDS011;3458;53.678;14.080;2022-08-16T03:31:44;15.13;;;10.90;;
6840;SDS011;3458;53.678;14.080;2022-08-16T03:34:09;13.90;;;11.43;;
6840;SDS011;3458;53.678;14.080;2022-08-16T03:36:35;17.57;;;10.70;;
6840;SDS011;3458;53.678;14.080;2022-08-16T03:39:00;21.70;;;11.60;;
6840;SDS011;3458;53.678;14.080;2022-08-16T03:41:26;15.40;;;10.57;;
6840;SDS011;3458;53.678;14.080;2022-08-16T03:43:52;18.63;;;11.53;;
6840;SDS011;3458;53.678;14.080;2022-08-16T03:46:21;16.70;;;10.97;;
6840;SDS011;3458;53.678;14.080;2022-08-16T03:48:46;13.80;;;10.73;;
6840;SDS011;3458;53.678;14.080;2022-08-16T03:51:13;12.80;;;10.17;;
6840;SDS011;3458;53.678;14.080;2022-08-16T03:53:40;12.77;;;10.13;;
6840;SDS011;3458;53.678;14.080;2022-08-16T03:56:07;12.83;;;10.13;;
6840;SDS011;3458;53.678;14.080;2022-08-16T03:58:33;13.87;;;11.00;;
6840;SDS011;3458;53.678;14.080;2022-08-16T04:00:59;16.83;;;10.47;;
6840;SDS011;3458;53.678;14.080;2022-08-16T04:03:24;16.23;;;11.37;;
6840;SDS011;3458;53.678;14.080;2022-08-16T04:05:50;16.90;;;10.47;;
6840;SDS011;3458;53.678;14.080;2022-08-16T04:08:16;15.07;;;11.20;;
6840;SDS011;3458;53.678;14.080;2022-08-16T04:10:45;16.17;;;11.90;;
6840;SDS011;3458;53.678;14.080;2022-08-16T04:13:10;19.10;;;11.83;;
6840;SDS011;3458;53.678;14.080;2022-08-16T04:15:36;16.80;;;10.60;;
6840;SDS011;3458;53.678;14.080;2022-08-16T04:18:02;17.63;;;11.17;;
6840;SDS011;3458;53.678;14.080;2022-08-16T04:20:28;25.40;;;12.40;;
6840;SDS011;3458;53.678;14.080;2022-08-16T04:22:55;15.20;;;10.37;;
6840;SDS011;3458;53.678;14.080;2022-08-16T04:25:20;16.73;;;10.50;;
6840;SDS011;3458;53.678;14.080;2022-08-16T04:27:46;14.17;;;9.90;;
6840;SDS011;3458;53.678;14.080;2022-08-16T04:30:13;15.70;;;9.77;;
6840;SDS011;3458;53.678;14.080;2022-08-16T04:32:40;10.50;;;8.77;;
6840;SDS011;3458;53.678;14.080;2022-08-16T04:35:07;13.80;;;9.10;;
6840;SDS011;3458;53.678;14.080;2022-08-16T04:37:34;22.23;;;10.97;;
6840;SDS011;3458;53.678;14.080;2022-08-16T04:40:00;13.23;;;10.50;;
6840;SDS011;3458;53.678;14.080;2022-08-16T04:42:26;14.20;;;11.80;;
6840;SDS011;3458;53.678;14.080;2022-08-16T04:44:52;32.83;;;14.10;;
6840;SDS011;3458;53.678;14.080;2022-08-16T04:47:19;16.27;;;10.40;;
6840;SDS011;3458;53.678;14.080;2022-08-16T04:49:45;15.17;;;11.13;;
6840;SDS011;3458;53.678;14.080;2022-08-16T04:52:11;13.90;;;10.70;;
6840;SDS011;3458;53.678;14.080;2022-08-16T04:54:36;14.17;;;10.80;;
6840;SDS011;3458;53.678;14.080;2022-08-16T04:57:04;20.20;;;13.43;;
6840;SDS011;3458;53.678;14.080;2022-08-16T04:59:30;16.60;;;12.30;;
6840;SDS011;3458;53.678;14.080;2022-08-16T05:01:55;18.27;;;10.70;;
6840;SDS011;3458;53.678;14.080;2022-08-16T05:04:22;15.57;;;10.17;;
6840;SDS011;3458;53.678;14.080;2022-08-16T05:06:48;14.80;;;10.50;;
6840;SDS011;3458;53.678;14.080;2022-08-16T05:09:14;12.23;;;11.00;;
6840;SDS011;3458;53.678;14.080;2022-08-16T05:11:39;14.03;;;10.40;;
6840;SDS011;3458;53.678;14.080;2022-08-16T05:14:05;14.63;;;10.47;;
6840;SDS011;3458;53.678;14.080;2022-08-16T05:16:30;13.63;;;10.33;;
6840;SDS011;3458;53.678;14.080;2022-08-16T05:18:57;11.50;;;9.77;;
6840;SDS011;3458;53.678;14.080;2022-08-16T05:21:26;15.20;;;10.90;;
6840;SDS011;3458;53.678;14.080;2022-08-16T05:23:55;15.00;;;10.47;;
6840;SDS011;3458;53.678;14.080;2022-08-16T05:26:21;16.23;;;13.00;;
6840;SDS011;3458;53.678;14.080;2022-08-16T05:28:48;14.97;;;11.07;;
6840;SDS011;3458;53.678;14.080;2022-08-16T05:31:14;18.50;;;11.20;;
6840;SDS011;3458;53.678;14.080;2022-08-16T05:33:40;15.83;;;11.90;;
6840;SDS011;3458;53.678;14.080;2022-08-16T05:36:06;15.80;;;10.23;;
6840;SDS011;3458;53.678;14.080;2022-08-16T05:38:32;15.03;;;10.90;;
6840;SDS011;3458;53.678;14.080;2022-08-16T05:40:58;16.50;;;11.70;;
6840;SDS011;3458;53.678;14.080;2022-08-16T05:43:25;15.40;;;10.83;;
6840;SDS011;3458;53.678;14.080;2022-08-16T05:45:51;13.17;;;10.63;;
6840;SDS011;3458;53.678;14.080;2022-08-16T05:48:17;14.07;;;11.57;;
6840;SDS011;3458;53.678;14.080;2022-08-16T05:50:43;14.60;;;11.37;;
6840;SDS011;3458;53.678;14.080;2022-08-16T05:53:08;15.77;;;12.20;;
6840;SDS011;3458;53.678;14.080;2022-08-16T05:55:34;21.73;;;12.73;;
6840;SDS011;3458;53.678;14.080;2022-08-16T05:58:00;15.60;;;12.30;;
6840;SDS011;3458;53.678;14.080;2022-08-16T06:00:25;19.03;;;11.60;;
6840;SDS011;3458;53.678;14.080;2022-08-16T06:02:51;17.40;;;10.97;;
6840;SDS011;3458;53.678;14.080;2022-08-16T06:05:17;13.80;;;11.93;;
6840;SDS011;3458;53.678;14.080;2022-08-16T06:07:43;15.27;;;11.70;;
6840;SDS011;3458;53.678;14.080;2022-08-16T06:10:10;16.60;;;11.23;;
6840;SDS011;3458;53.678;14.080;2022-08-16T06:12:36;14.10;;;11.27;;
6840;SDS011;3458;53.678;14.080;2022-08-16T06:15:04;13.30;;;10.90;;
6840;SDS011;3458;53.678;14.080;2022-08-16T06:17:33;14.03;;;11.90;;
6840;SDS011;3458;53.678;14.080;2022-08-16T06:19:59;16.10;;;11.30;;
6840;SDS011;3458;53.678;14.080;2022-08-16T06:22:24;15.80;;;12.80;;
6840;SDS011;3458;53.678;14.080;2022-08-16T06:24:50;17.53;;;12.57;;
6840;SDS011;3458;53.678;14.080;2022-08-16T06:27:15;15.77;;;11.90;;
6840;SDS011;3458;53.678;14.080;2022-08-16T06:29:41;17.27;;;12.57;;
6840;SDS011;3458;53.678;14.080;2022-08-16T06:32:08;17.70;;;13.10;;
6840;SDS011;3458;53.678;14.080;2022-08-16T06:34:35;17.40;;;12.00;;
6840;SDS011;3458;53.678;14.080;2022-08-16T06:37:01;15.07;;;12.80;;
6840;SDS011;3458;53.678;14.080;2022-08-16T06:39:27;15.67;;;12.60;;
6840;SDS011;3458;53.678;14.080;2022-08-16T06:41:53;22.80;;;13.07;;
6840;SDS011;3458;53.678;14.080;2022-08-16T06:44:18;16.73;;;12.40;;
6840;SDS011;3458;53.678;14.080;2022-08-16T06:46:44;16.07;;;12.03;;
6840;SDS011;3458;53.678;14.080;2022-08-16T06:49:10;13.93;;;12.30;;
6840;SDS011;3458;53.678;14.080;2022-08-16T06:51:36;18.87;;;11.93;;
6840;SDS011;3458;53.678;14.080;2022-08-16T06:54:04;14.43;;;12.37;;
6840;SDS011;3458;53.678;14.080;2022-08-16T06:56:30;18.47;;;11.90;;
6840;SDS011;3458;53.678;14.080;2022-08-16T06:58:56;13.80;;;11.87;;
6840;SDS011;3458;53.678;14.080;2022-08-16T07:01:22;15.63;;;12.57;;
6840;SDS011;3458;53.678;14.080;2022-08-16T07:03:48;12.90;;;11.13;;
6840;SDS011;3458;53.678;14.080;2022-08-16T07:06:14;15.90;;;12.67;;
6840;SDS011;3458;53.678;14.080;2022-08-16T07:08:42;14.07;;;11.33;;
6840;SDS011;3458;53.678;14.080;2022-08-16T07:11:10;14.37;;;11.70;;
6840;SDS011;3458;53.678;14.080;2022-08-16T07:13:36;16.13;;;12.23;;
6840;SDS011;3458;53.678;14.080;2022-08-16T07:16:02;19.43;;;12.47;;
6840;SDS011;3458;53.678;14.080;2022-08-16T07:18:29;155.93;;;36.40;;
6840;SDS011;3458;53.678;14.080;2022-08-16T07:20:55;16.50;;;12.13;;
6840;SDS011;3458;53.678;14.080;2022-08-16T07:23:22;20.40;;;11.97;;
6840;SDS011;3458;53.678;14.080;2022-08-16T07:25:50;16.20;;;11.00;;
6840;SDS011;3458;53.678;14.080;2022-08-16T07:28:17;12.53;;;10.10;;
6840;SDS011;3458;53.678;14.080;2022-08-16T07:30:44;28.87;;;15.77;;
6840;SDS011;3458;53.678;14.080;2022-08-16T07:33:10;14.90;;;11.00;;
6840;SDS011;3458;53.678;14.080;2022-08-16T07:35:37;13.10;;;9.80;;
6840;SDS011;3458;53.678;14.080;2022-08-16T07:38:04;12.97;;;10.30;;
6840;SDS011;3458;53.678;14.080;2022-08-16T07:40:31;11.80;;;9.90;;
6840;SDS011;3458;53.678;14.080;2022-08-16T07:42:58;14.40;;;8.83;;
6840;SDS011;3458;53.678;14.080;2022-08-16T07:45:25;10.67;;;9.57;;
6840;SDS011;3458;53.678;14.080;2022-08-16T07:47:50;10.47;;;9.37;;
6840;SDS011;3458;53.678;14.080;2022-08-16T07:50:16;13.53;;;10.03;;
6840;SDS011;3458;53.678;14.080;2022-08-16T07:52:42;12.53;;;9.70;;
6840;SDS011;3458;53.678;14.080;2022-08-16T07:55:09;10.73;;;9.50;;
6840;SDS011;3458;53.678;14.080;2022-08-16T07:57:37;11.60;;;8.97;;
6840;SDS011;3458;53.678;14.080;2022-08-16T08:00:04;12.00;;;8.67;;
6840;SDS011;3458;53.678;14.080;2022-08-16T08:02:30;12.20;;;9.20;;
6840;SDS011;3458;53.678;14.080;2022-08-16T08:04:56;17.27;;;9.60;;
6840;SDS011;3458;53.678;14.080;2022-08-16T08:07:22;18.67;;;10.33;;
6840;SDS011;3458;53.678;14.080;2022-08-16T08:09:49;15.70;;;9.53;;
6840;SDS011;3458;53.678;14.080;2022-08-16T08:12:15;15.90;;;8.73;;
6840;SDS011;3458;53.678;14.080;2022-08-16T08:14:43;10.87;;;9.63;;
6840;SDS011;3458;53.678;14.080;2022-08-16T08:17:12;11.37;;;9.10;;
6840;SDS011;3458;53.678;14.080;2022-08-16T08:19:39;13.43;;;10.37;;
6840;SDS011;3458;53.678;14.080;2022-08-16T08:22:05;12.80;;;9.00;;
6840;SDS011;3458;53.678;14.080;2022-08-16T08:24:33;10.37;;;9.33;;
6840;SDS011;3458;53.678;14.080;2022-08-16T08:27:02;9.60;;;8.60;;
6840;SDS011;3458;53.678;14.080;2022-08-16T08:29:29;12.53;;;8.93;;
6840;SDS011;3458;53.678;14.080;2022-08-16T08:31:55;11.67;;;8.93;;
6840;SDS011;3458;53.678;14.080;2022-08-16T08:34:20;13.33;;;9.37;;
6840;SDS011;3458;53.678;14.080;2022-08-16T08:36:47;10.70;;;9.30;;
6840;SDS011;3458;53.678;14.080;2022-08-16T08:39:14;9.17;;;8.27;;
6840;SDS011;3458;53.678;14.080;2022-08-16T08:41:40;10.40;;;8.67;;
6840;SDS011;3458;53.678;14.080;2022-08-16T08:44:06;9.83;;;8.37;;
6840;SDS011;3458;53.678;14.080;2022-08-16T08:46:32;12.43;;;8.87;;
6840;SDS011;3458;53.678;14.080;2022-08-16T08:48:57;9.57;;;7.87;;
6840;SDS011;3458;53.678;14.080;2022-08-16T08:51:23;10.00;;;8.97;;
6840;SDS011;3458;53.678;14.080;2022-08-16T08:53:49;13.10;;;9.17;;
6840;SDS011;3458;53.678;14.080;2022-08-16T08:56:15;10.37;;;9.37;;
6840;SDS011;3458;53.678;14.080;2022-08-16T08:58:41;10.93;;;8.90;;
6840;SDS011;3458;53.678;14.080;2022-08-16T09:01:07;8.67;;;7.83;;
6840;SDS011;3458;53.678;14.080;2022-08-16T09:03:34;9.73;;;8.73;;
6840;SDS011;3458;53.678;14.080;2022-08-16T09:06:02;8.10;;;7.30;;
6840;SDS011;3458;53.678;14.080;2022-08-16T09:08:29;9.77;;;8.70;;
6840;SDS011;3458;53.678;14.080;2022-08-16T09:10:56;8.83;;;7.93;;
6840;SDS011;3458;53.678;14.080;2022-08-16T09:13:23;14.10;;;8.40;;
6840;SDS011;3458;53.678;14.080;2022-08-16T09:15:50;8.57;;;7.53;;
6840;SDS011;3458;53.678;14.080;2022-08-16T09:18:18;8.40;;;6.97;;
6840;SDS011;3458;53.678;14.080;2022-08-16T09:20:44;8.10;;;7.30;;
6840;SDS011;3458;53.678;14.080;2022-08-16T09:23:11;8.53;;;7.40;;
6840;SDS011;3458;53.678;14.080;2022-08-16T09:25:37;11.27;;;7.93;;
6840;SDS011;3458;53.678;14.080;2022-08-16T09:28:03;9.07;;;7.73;;
6840;SDS011;3458;53.678;14.080;2022-08-16T09:30:29;8.30;;;7.30;;
6840;SDS011;3458;53.678;14.080;2022-08-16T09:32:59;8.03;;;7.23;;
6840;SDS011;3458;53.678;14.080;2022-08-16T09:35:25;10.50;;;8.40;;
6840;SDS011;3458;53.678;14.080;2022-08-16T09:37:50;8.80;;;7.50;;
6840;SDS011;3458;53.678;14.080;2022-08-16T09:40:16;10.93;;;7.27;;
6840;SDS011;3458;53.678;14.080;2022-08-16T09:42:42;10.13;;;7.40;;
6840;SDS011;3458;53.678;14.080;2022-08-16T09:45:08;8.20;;;6.43;;
6840;SDS011;3458;53.678;14.080;2022-08-16T09:47:34;8.30;;;7.33;;
6840;SDS011;3458;53.678;14.080;2022-08-16T09:50:05;11.53;;;7.37;;
6840;SDS011;3458;53.678;14.080;2022-08-16T09:52:35;7.90;;;6.43;;
6840;SDS011;3458;53.678;14.080;2022-08-16T09:55:11;9.73;;;7.00;;
6840;SDS011;3458;53.678;14.080;2022-08-16T09:57:37;8.97;;;7.00;;
6840;SDS011;3458;53.678;14.080;2022-08-16T10:00:06;9.73;;;6.27;;
6840;SDS011;3458;53.678;14.080;2022-08-16T10:02:34;7.43;;;6.60;;
6840;SDS011;3458;53.678;14.080;2022-08-16T10:05:00;8.00;;;6.50;;
6840;SDS011;3458;53.678;14.080;2022-08-16T10:07:27;8.50;;;7.00;;
6840;SDS011;3458;53.678;14.080;2022-08-16T10:09:55;12.73;;;7.07;;
6840;SDS011;3458;53.678;14.080;2022-08-16T10:12:20;9.43;;;6.43;;
6840;SDS011;3458;53.678;14.080;2022-08-16T10:15:05;8.47;;;5.90;;
6840;SDS011;3458;53.678;14.080;2022-08-16T10:17:33;7.67;;;6.70;;
6840;SDS011;3458;53.678;14.080;2022-08-16T10:19:59;15.97;;;11.77;;
6840;SDS011;3458;53.678;14.080;2022-08-16T10:22:25;8.70;;;6.30;;
6840;SDS011;3458;53.678;14.080;2022-08-16T10:24:51;6.50;;;5.80;;
6840;SDS011;3458;53.678;14.080;2022-08-16T10:27:16;6.27;;;5.70;;
6840;SDS011;3458;53.678;14.080;2022-08-16T10:29:42;6.70;;;5.70;;
6840;SDS011;3458;53.678;14.080;2022-08-16T10:32:08;5.77;;;5.27;;
6840;SDS011;3458;53.678;14.080;2022-08-16T10:34:33;7.90;;;6.13;;
6840;SDS011;3458;53.678;14.080;2022-08-16T10:37:00;6.00;;;5.20;;
6840;SDS011;3458;53.678;14.080;2022-08-16T10:39:26;5.73;;;5.23;;
6840;SDS011;3458;53.678;14.080;2022-08-16T10:41:52;5.60;;;5.13;;
6840;SDS011;3458;53.678;14.080;2022-08-16T10:44:17;5.20;;;4.53;;
6840;SDS011;3458;53.678;14.080;2022-08-16T10:46:44;6.23;;;5.10;;
6840;SDS011;3458;53.678;14.080;2022-08-16T10:49:10;6.80;;;5.57;;
6840;SDS011;3458;53.678;14.080;2022-08-16T10:51:36;7.23;;;5.40;;
6840;SDS011;3458;53.678;14.080;2022-08-16T10:54:03;5.87;;;4.97;;
6840;SDS011;3458;53.678;14.080;2022-08-16T10:56:29;5.67;;;5.17;;
6840;SDS011;3458;53.678;14.080;2022-08-16T10:58:55;6.73;;;6.03;;
6840;SDS011;3458;53.678;14.080;2022-08-16T11:01:23;6.77;;;5.97;;
6840;SDS011;3458;53.678;14.080;2022-08-16T11:03:52;6.27;;;5.67;;
6840;SDS011;3458;53.678;14.080;2022-08-16T11:06:18;6.20;;;5.30;;
6840;SDS011;3458;53.678;14.080;2022-08-16T11:08:44;6.90;;;5.07;;
6840;SDS011;3458;53.678;14.080;2022-08-16T11:11:09;6.80;;;6.20;;
6840;SDS011;3458;53.678;14.080;2022-08-16T11:13:37;6.47;;;4.57;;
6840;SDS011;3458;53.678;14.080;2022-08-16T11:16:03;9.50;;;4.97;;
6840;SDS011;3458;53.678;14.080;2022-08-16T11:18:30;7.77;;;5.27;;
6840;SDS011;3458;53.678;14.080;2022-08-16T11:20:56;10.53;;;5.40;;
6840;SDS011;3458;53.678;14.080;2022-08-16T11:23:23;5.33;;;4.83;;
6840;SDS011;3458;53.678;14.080;2022-08-16T11:25:49;6.83;;;5.00;;
6840;SDS011;3458;53.678;14.080;2022-08-16T11:28:16;5.60;;;5.10;;
6840;SDS011;3458;53.678;14.080;2022-08-16T11:30:41;8.20;;;5.70;;
6840;SDS011;3458;53.678;14.080;2022-08-16T11:33:07;9.20;;;6.00;;
6840;SDS011;3458;53.678;14.080;2022-08-16T11:35:34;9.60;;;5.20;;
6840;SDS011;3458;53.678;14.080;2022-08-16T11:38:02;6.93;;;5.60;;
6840;SDS011;3458;53.678;14.080;2022-08-16T11:40:36;5.73;;;5.13;;
6840;SDS011;3458;53.678;14.080;2022-08-16T11:43:06;5.70;;;5.20;;
6840;SDS011;3458;53.678;14.080;2022-08-16T11:45:32;7.73;;;5.70;;
6840;SDS011;3458;53.678;14.080;2022-08-16T11:47:59;5.40;;;4.90;;
6840;SDS011;3458;53.678;14.080;2022-08-16T11:50:26;6.17;;;5.43;;
6840;SDS011;3458;53.678;14.080;2022-08-16T11:52:52;6.70;;;5.07;;
6840;SDS011;3458;53.678;14.080;2022-08-16T11:55:17;7.83;;;5.17;;
6840;SDS011;3458;53.678;14.080;2022-08-16T11:57:43;8.87;;;5.53;;
6840;SDS011;3458;53.678;14.080;2022-08-16T12:00:10;5.60;;;5.10;;
6840;SDS011;3458;53.678;14.080;2022-08-16T12:02:39;10.20;;;5.07;;
6840;SDS011;3458;53.678;14.080;2022-08-16T12:05:09;4.80;;;4.40;;
6840;SDS011;3458;53.678;14.080;2022-08-16T12:07:37;4.93;;;4.53;;
6840;SDS011;3458;53.678;14.080;2022-08-16T12:10:04;4.70;;;4.33;;
6840;SDS011;3458;53.678;14.080;2022-08-16T12:12:32;6.40;;;4.90;;
6840;SDS011;3458;53.678;14.080;2022-08-16T12:14:58;5.70;;;4.27;;
6840;SDS011;3458;53.678;14.080;2022-08-16T12:17:24;6.53;;;4.90;;
6840;SDS011;3458;53.678;14.080;2022-08-16T12:19:50;5.53;;;5.13;;
6840;SDS011;3458;53.678;14.080;2022-08-16T12:22:16;6.27;;;5.67;;
6840;SDS011;3458;53.678;14.080;2022-08-16T12:24:41;4.30;;;4.00;;
6840;SDS011;3458;53.678;14.080;2022-08-16T12:27:07;5.43;;;4.53;;
6840;SDS011;3458;53.678;14.080;2022-08-16T12:29:33;4.70;;;4.17;;
6840;SDS011;3458;53.678;14.080;2022-08-16T12:31:59;6.23;;;4.60;;
6840;SDS011;3458;53.678;14.080;2022-08-16T12:34:24;4.93;;;4.20;;
6840;SDS011;3458;53.678;14.080;2022-08-16T12:36:50;5.67;;;4.70;;
6840;SDS011;3458;53.678;14.080;2022-08-16T12:39:16;8.27;;;5.30;;
6840;SDS011;3458;53.678;14.080;2022-08-16T12:41:44;6.90;;;4.67;;
6840;SDS011;3458;53.678;14.080;2022-08-16T12:44:11;4.60;;;4.20;;
6840;SDS011;3458;53.678;14.080;2022-08-16T12:46:37;5.17;;;4.77;;
6840;SDS011;3458;53.678;14.080;2022-08-16T12:49:03;4.93;;;4.53;;
6840;SDS011;3458;53.678;14.080;2022-08-16T12:51:37;7.90;;;4.80;;
6840;SDS011;3458;53.678;14.080;2022-08-16T12:54:05;4.83;;;4.33;;
6840;SDS011;3458;53.678;14.080;2022-08-16T12:56:34;4.83;;;4.23;;
6840;SDS011;3458;53.678;14.080;2022-08-16T12:59:05;5.90;;;5.30;;
6840;SDS011;3458;53.678;14.080;2022-08-16T13:01:33;4.23;;;3.83;;
6840;SDS011;3458;53.678;14.080;2022-08-16T13:04:00;5.80;;;5.20;;
6840;SDS011;3458;53.678;14.080;2022-08-16T13:06:27;5.90;;;4.70;;
6840;SDS011;3458;53.678;14.080;2022-08-16T13:08:53;5.40;;;4.90;;
6840;SDS011;3458;53.678;14.080;2022-08-16T13:11:32;4.83;;;4.43;;
6840;SDS011;3458;53.678;14.080;2022-08-16T13:14:02;4.80;;;4.30;;
6840;SDS011;3458;53.678;14.080;2022-08-16T13:16:27;5.80;;;5.30;;
6840;SDS011;3458;53.678;14.080;2022-08-16T13:18:53;5.60;;;5.00;;
6840;SDS011;3458;53.678;14.080;2022-08-16T13:21:19;4.80;;;4.40;;
6840;SDS011;3458;53.678;14.080;2022-08-16T13:23:44;4.60;;;4.20;;
6840;SDS011;3458;53.678;14.080;2022-08-16T13:26:10;5.90;;;5.07;;
6840;SDS011;3458;53.678;14.080;2022-08-16T13:28:36;7.07;;;4.77;;
6840;SDS011;3458;53.678;14.080;2022-08-16T13:31:02;5.60;;;4.50;;
6840;SDS011;3458;53.678;14.080;2022-08-16T13:33:29;5.00;;;4.60;;
6840;SDS011;3458;53.678;14.080;2022-08-16T13:36:00;5.50;;;4.97;;
6840;SDS011;3458;53.678;14.080;2022-08-16T13:38:29;4.93;;;4.50;;
6840;SDS011;3458;53.678;14.080;2022-08-16T13:40:55;4.90;;;4.20;;
6840;SDS011;3458;53.678;14.080;2022-08-16T13:43:21;8.20;;;4.10;;
6840;SDS011;3458;53.678;14.080;2022-08-16T13:45:47;10.57;;;4.13;;
6840;SDS011;3458;53.678;14.080;2022-08-16T13:48:13;5.17;;;3.53;;
6840;SDS011;3458;53.678;14.080;2022-08-16T13:50:39;4.00;;;3.70;;
6840;SDS011;3458;53.678;14.080;2022-08-16T13:53:04;3.93;;;3.63;;
6840;SDS011;3458;53.678;14.080;2022-08-16T13:55:30;4.07;;;3.77;;
6840;SDS011;3458;53.678;14.080;2022-08-16T13:57:57;4.00;;;3.47;;
6840;SDS011;3458;53.678;14.080;2022-08-16T14:00:22;4.83;;;4.13;;
6840;SDS011;3458;53.678;14.080;2022-08-16T14:02:48;5.10;;;3.90;;
6840;SDS011;3458;53.678;14.080;2022-08-16T14:05:14;5.60;;;4.20;;
6840;SDS011;3458;53.678;14.080;2022-08-16T14:07:40;3.30;;;3.10;;
6840;SDS011;3458;53.678;14.080;2022-08-16T14:10:06;4.07;;;3.77;;
6840;SDS011;3458;53.678;14.080;2022-08-16T14:12:34;4.80;;;4.23;;
6840;SDS011;3458;53.678;14.080;2022-08-16T14:15:01;4.50;;;4.03;;
6840;SDS011;3458;53.678;14.080;2022-08-16T14:17:32;4.47;;;4.17;;
6840;SDS011;3458;53.678;14.080;2022-08-16T14:19:57;7.17;;;3.60;;
6840;SDS011;3458;53.678;14.080;2022-08-16T14:22:24;4.60;;;4.20;;
6840;SDS011;3458;53.678;14.080;2022-08-16T14:24:52;3.53;;;3.30;;
6840;SDS011;3458;53.678;14.080;2022-08-16T14:27:21;3.33;;;3.13;;
6840;SDS011;3458;53.678;14.080;2022-08-16T14:29:50;3.80;;;3.50;;
6840;SDS011;3458;53.678;14.080;2022-08-16T14:32:16;3.15;;;2.95;;
6840;SDS011;3458;53.678;14.080;2022-08-16T14:34:43;4.18;;;3.75;;
6840;SDS011;3458;53.678;14.080;2022-08-16T14:37:08;5.28;;;3.50;;
6840;SDS011;3458;53.678;14.080;2022-08-16T14:39:34;3.80;;;3.60;;
6840;SDS011;3458;53.678;14.080;2022-08-16T14:42:06;5.60;;;4.07;;
6840;SDS011;3458;53.678;14.080;2022-08-16T14:44:38;6.63;;;3.63;;
6840;SDS011;3458;53.678;14.080;2022-08-16T14:47:04;3.60;;;3.40;;
6840;SDS011;3458;53.678;14.080;2022-08-16T14:49:30;3.33;;;3.13;;